Iba, Philippines
Current Conditions -  °F | °C
As of 7:00 PM on Friday 24 Oct 2014 (Local Time) from RPLC Reporting Station
Broken Clouds Broken Clouds  
Wind Chill: 81°   Ceiling: 30000
Heat Index: 84°   Visibility: 6mi
Dew Point: 70°   Wind: 3mph
Humidity: 70%   Direction: 100°E
Pressure: 29.88"   Gusts: NA
Location:  15.32°N, 119.98°E
Report Text: RPLC 241100Z 10003KT 9999 FEW036 BKN300 27/21 Q1012 A2989 RMK NOSIG
Loading
Personal Weather Stations






























Interactive Weather Map
Tropical Storm Tracking
New forecast layout! Learn more

10-Day Weather Forecast

Advertisements
Track Severe Weather on mobile